createdAt,value
2022-09-23T00:01:34.525Z,92403.59
2022-09-23T00:04:03.222Z,92397.88
2022-09-23T00:06:31.843Z,92389.34
2022-09-23T00:09:00.662Z,92403.16
2022-09-23T00:11:29.831Z,92393.34
2022-09-23T00:14:00.694Z,92383.63
2022-09-23T00:16:35.592Z,92395.41
2022-09-23T00:19:04.983Z,92385.75
2022-09-23T00:21:33.565Z,92390.75
2022-09-23T00:24:02.504Z,92385.88
2022-09-23T00:26:30.499Z,92385.88
2022-09-23T00:28:59.059Z,92377.22
2022-09-23T00:31:28.616Z,92378.22
2022-09-23T00:34:02.477Z,92371.31
2022-09-23T00:36:33.527Z,92382.75
2022-09-23T00:39:04.161Z,92377.88
2022-09-23T00:41:33.369Z,92376.75
2022-09-23T00:44:02.808Z,92370.94
2022-09-23T00:46:38.883Z,92366.31
2022-09-23T00:49:36.466Z,92368.91
2022-09-23T00:52:12.952Z,92362.50
2022-09-23T00:54:42.370Z,92365.53
2022-09-23T00:57:12.828Z,92366.38
2022-09-23T00:59:41.626Z,92359.75
2022-09-23T01:02:11.160Z,92361.06
2022-09-23T01:04:40.502Z,92366.94
2022-09-23T01:07:09.059Z,92353.84
2022-09-23T01:09:38.489Z,92354.78
2022-09-23T01:12:45.120Z,92358.84
2022-09-23T01:15:24.036Z,92361.03
2022-09-23T01:18:18.980Z,92350.88
2022-09-23T01:21:15.370Z,92349.13
2022-09-23T01:24:09.179Z,92347.94
2022-09-23T01:27:00.732Z,92349.13
2022-09-23T01:29:37.759Z,92344.56
2022-09-23T01:32:24.190Z,92349.28
2022-09-23T01:35:04.247Z,92340.72
2022-09-23T01:37:35.415Z,92343.38
2022-09-23T01:40:11.445Z,92341.25
2022-09-23T01:42:58.844Z,92345.81
2022-09-23T01:45:32.991Z,92344.66
2022-09-23T01:48:24.668Z,92343.69
2022-09-23T01:51:03.879Z,92342.59
2022-09-23T01:53:40.440Z,92341.13
2022-09-23T01:56:23.373Z,92341.81
2022-09-23T01:59:03.694Z,92335.75
2022-09-23T02:01:42.116Z,92345.63
2022-09-23T02:04:23.791Z,92345.63
2022-09-23T02:07:04.741Z,92348.66
2022-09-23T02:09:39.132Z,92351.66
2022-09-23T02:12:13.679Z,92357.25
2022-09-23T02:14:57.990Z,92352.19
2022-09-23T02:17:36.423Z,92364.69
2022-09-23T02:20:07.421Z,92354.69
2022-09-23T02:22:58.373Z,92350.16
2022-09-23T02:25:37.019Z,92351.88
2022-09-23T02:28:34.152Z,92356.34
2022-09-23T02:31:11.452Z,92357.00
2022-09-23T02:34:01.791Z,92360.53
2022-09-23T02:36:39.040Z,92362.31
2022-09-23T02:39:12.905Z,92354.72
2022-09-23T02:42:11.325Z,92352.69
2022-09-23T02:44:39.948Z,92348.53
2022-09-23T02:47:09.053Z,92347.66
2022-09-23T02:49:37.927Z,92355.44
2022-09-23T02:52:08.863Z,92347.16
2022-09-23T02:54:38.945Z,92356.63
2022-09-23T02:57:09.773Z,92360.78
2022-09-23T02:59:39.108Z,92352.97
2022-09-23T03:02:27.817Z,92347.63
2022-09-23T03:05:28.638Z,92344.56
2022-09-23T03:08:16.350Z,92339.53
2022-09-23T03:10:48.463Z,92345.94
2022-09-23T03:14:01.174Z,92344.75
2022-09-23T03:16:57.532Z,92339.53
2022-09-23T03:19:46.329Z,92341.69
2022-09-23T03:22:31.529Z,92350.72
2022-09-23T03:25:10.008Z,92352.53
2022-09-23T03:27:40.395Z,92345.66
2022-09-23T03:30:09.789Z,92344.31
2022-09-23T03:32:39.799Z,92338.72
2022-09-23T03:35:09.049Z,92343.19
2022-09-23T03:37:43.416Z,92333.25
2022-09-23T03:40:16.497Z,92330.50
2022-09-23T03:42:45.425Z,92337.22
2022-09-23T03:45:20.324Z,92323.38
2022-09-23T03:47:49.116Z,92322.34
2022-09-23T03:50:20.498Z,92333.66
2022-09-23T03:52:50.624Z,92323.22
2022-09-23T03:55:20.625Z,92333.78
2022-09-23T03:57:49.884Z,92332.88
2022-09-23T04:00:18.669Z,92329.34
2022-09-23T04:02:47.288Z,92343.28
2022-09-23T04:05:16.230Z,92329.28
2022-09-23T04:07:44.927Z,92336.69
2022-09-23T04:10:13.550Z,92335.03
2022-09-23T04:12:42.200Z,92333.69
2022-09-23T04:15:11.072Z,92339.28
2022-09-23T04:17:39.384Z,92345.47
2022-09-23T04:20:08.035Z,92336.97
2022-09-23T04:22:36.839Z,92333.38
2022-09-23T04:25:06.025Z,92336.31
2022-09-23T04:27:37.725Z,92330.00
2022-09-23T04:30:07.674Z,92336.75
2022-09-23T04:32:36.247Z,92341.56
2022-09-23T04:35:05.265Z,92333.88
2022-09-23T04:37:33.935Z,92344.81
2022-09-23T04:40:02.652Z,92333.06
2022-09-23T04:42:32.115Z,92331.91
2022-09-23T04:45:00.447Z,92330.66
2022-09-23T04:47:29.537Z,92328.84
2022-09-23T04:49:59.877Z,92329.13
2022-09-23T04:52:28.885Z,92325.19
2022-09-23T04:54:57.395Z,92324.53
2022-09-23T04:57:25.951Z,92327.25
2022-09-23T04:59:56.257Z,92332.19
2022-09-23T05:02:25.989Z,92334.03
2022-09-23T05:04:54.579Z,92332.25
2022-09-23T05:07:23.155Z,92327.47
2022-09-23T05:09:51.778Z,92330.03
2022-09-23T05:12:20.095Z,92323.09
2022-09-23T05:14:48.637Z,92329.25
2022-09-23T05:17:17.559Z,92326.06
2022-09-23T05:19:46.178Z,92319.19
2022-09-23T05:22:14.504Z,92323.47
2022-09-23T05:24:42.985Z,92318.72
2022-09-23T05:27:11.607Z,92324.03
2022-09-23T05:29:40.471Z,92320.63
2022-09-23T05:32:09.274Z,92330.75
2022-09-23T05:34:37.762Z,92326.81
2022-09-23T05:37:06.651Z,92333.78
2022-09-23T05:39:38.036Z,92330.38
2022-09-23T05:42:06.963Z,92326.41
2022-09-23T05:44:35.635Z,92324.84
2022-09-23T05:47:04.183Z,92324.06
2022-09-23T05:49:55.179Z,92321.16
2022-09-23T05:52:21.407Z,92322.28
2022-09-23T05:54:50.866Z,92324.78
2022-09-23T05:57:19.951Z,92325.59
2022-09-23T05:59:48.985Z,92321.34
2022-09-23T06:02:17.371Z,92317.66
2022-09-23T06:04:46.716Z,92318.75
2022-09-23T06:07:15.224Z,92323.84
2022-09-23T06:09:43.641Z,92326.25
2022-09-23T06:12:12.156Z,92332.41
2022-09-23T06:14:40.795Z,92329.53
2022-09-23T06:17:09.490Z,92328.50
2022-09-23T06:19:38.178Z,92331.94
2022-09-23T06:22:06.814Z,92329.56
2022-09-23T06:24:35.559Z,92328.53
2022-09-23T06:27:04.191Z,92329.06
2022-09-23T06:29:34.972Z,92334.91
2022-09-23T06:32:04.318Z,92340.22
2022-09-23T06:34:41.947Z,92338.66
2022-09-23T06:37:19.867Z,92332.03
2022-09-23T06:39:49.683Z,92332.56
2022-09-23T06:42:18.420Z,92338.66
2022-09-23T06:44:46.732Z,92332.59
2022-09-23T06:47:15.461Z,92341.31
2022-09-23T06:49:44.412Z,92346.09
2022-09-23T06:52:12.921Z,92342.13
2022-09-23T06:54:41.441Z,92339.47
2022-09-23T06:57:11.486Z,92342.94
2022-09-23T06:59:40.133Z,92341.88
2022-09-23T07:02:10.920Z,92345.31
2022-09-23T07:04:39.764Z,92353.25
2022-09-23T07:07:08.283Z,92352.44
2022-09-23T07:09:36.301Z,92351.41
2022-09-23T07:12:04.657Z,92348.75
2022-09-23T07:14:33.463Z,92355.09
2022-09-23T07:17:02.255Z,92348.47
2022-09-23T07:19:30.831Z,92353.25
2022-09-23T07:21:59.430Z,92349.28
2022-09-23T07:24:27.993Z,92346.56
2022-09-23T07:26:56.823Z,92362.19
2022-09-23T07:29:25.335Z,92355.78
2022-09-23T07:31:58.606Z,92356.03
2022-09-23T07:34:31.990Z,92361.81
2022-09-23T07:37:00.577Z,92361.84
2022-09-23T07:39:29.117Z,92359.47
2022-09-23T07:41:58.047Z,92367.59
2022-09-23T07:44:26.913Z,92371.81
2022-09-23T07:46:55.258Z,92366.25
2022-09-23T07:49:23.828Z,92368.31
2022-09-23T07:51:52.748Z,92362.72
2022-09-23T07:54:21.875Z,92364.28
2022-09-23T07:56:50.199Z,92364.47
2022-09-23T07:59:20.282Z,92371.09
2022-09-23T08:01:55.758Z,92363.69
2022-09-23T08:04:26.268Z,92371.03
2022-09-23T08:06:58.331Z,92372.34
2022-09-23T08:09:30.493Z,92373.38
2022-09-23T08:11:59.030Z,92371.78
2022-09-23T08:14:28.065Z,92369.34
2022-09-23T08:16:56.857Z,92364.38
2022-09-23T08:19:25.406Z,92369.09
2022-09-23T08:21:54.014Z,92368.25
2022-09-23T08:24:25.407Z,92369.75
2022-09-23T08:26:55.776Z,92378.94
2022-09-23T08:29:26.306Z,92385.03
2022-09-23T08:31:55.388Z,92382.13
2022-09-23T08:34:24.921Z,92390.25
2022-09-23T08:36:53.694Z,92389.41
2022-09-23T08:39:23.810Z,92392.31
2022-09-23T08:41:59.222Z,92391.69
2022-09-23T08:44:50.813Z,92398.59
2022-09-23T08:47:31.094Z,92402.31
2022-09-23T08:50:02.332Z,92403.38
2022-09-23T08:52:48.664Z,92418.34
2022-09-23T08:55:18.888Z,92416.97
2022-09-23T08:58:25.306Z,92439.63
2022-09-23T09:01:18.762Z,92420.19
2022-09-23T09:03:55.064Z,92452.50
2022-09-23T09:06:53.661Z,92433.59
2022-09-23T09:09:32.023Z,92447.16
2022-09-23T09:12:06.188Z,92445.41
2022-09-23T09:14:44.601Z,92448.13
2022-09-23T09:17:22.418Z,92439.94
2022-09-23T09:19:59.308Z,92426.81
2022-09-23T09:22:55.195Z,92428.97
2022-09-23T09:25:34.679Z,92435.81
2022-09-23T09:28:05.092Z,92437.28
2022-09-23T09:30:36.332Z,92443.59
2022-09-23T09:33:15.235Z,92457.34
2022-09-23T09:35:47.170Z,92462.19
2022-09-23T09:38:16.230Z,92460.72
2022-09-23T09:40:48.929Z,92465.25
2022-09-23T09:43:26.939Z,92467.94
2022-09-23T09:46:35.314Z,92462.50
2022-09-23T09:49:44.675Z,92471.94
2022-09-23T09:52:16.706Z,92475.84
2022-09-23T09:54:46.049Z,92476.94
2022-09-23T09:57:38.169Z,92480.28
2022-09-23T10:00:44.251Z,92482.50
2022-09-23T10:03:15.701Z,92480.13
2022-09-23T10:05:46.940Z,92481.41
2022-09-23T10:08:24.670Z,92479.72
2022-09-23T10:10:57.254Z,92472.06
2022-09-23T10:13:26.266Z,92474.34
2022-09-23T10:15:56.159Z,92478.91
2022-09-23T10:18:33.224Z,92467.44
2022-09-23T10:21:10.979Z,92475.44
2022-09-23T10:23:53.823Z,92474.34
2022-09-23T10:26:38.782Z,92479.31
2022-09-23T10:29:31.867Z,92481.91
2022-09-23T10:32:22.112Z,92488.19
2022-09-23T10:34:55.864Z,92496.84
2022-09-23T10:37:38.492Z,92504.75
2022-09-23T10:41:02.966Z,92511.97
2022-09-23T10:44:18.387Z,92515.56
2022-09-23T10:47:17.157Z,92528.78
2022-09-23T10:50:18.531Z,92534.06
2022-09-23T10:53:06.046Z,92535.16
2022-09-23T10:56:17.528Z,92538.53
2022-09-23T10:59:07.745Z,92546.69
2022-09-23T11:02:04.282Z,92548.84
2022-09-23T11:04:55.949Z,92559.94
2022-09-23T11:08:07.253Z,92559.03
2022-09-23T11:11:02.878Z,92576.31
2022-09-23T11:13:59.454Z,92578.16
2022-09-23T11:16:42.900Z,92577.06
2022-09-23T11:19:23.135Z,92594.41
2022-09-23T11:22:33.561Z,92592.25
2022-09-23T11:25:25.783Z,92587.13
2022-09-23T11:28:09.755Z,92596.88
2022-09-23T11:31:03.042Z,92602.81
2022-09-23T11:33:51.127Z,92614.03
2022-09-23T11:36:45.673Z,92621.50
2022-09-23T11:39:27.781Z,92620.03
2022-09-23T11:41:58.656Z,92621.13
2022-09-23T11:44:30.551Z,92628.59
2022-09-23T11:47:15.573Z,92630.47
2022-09-23T11:49:49.443Z,92643.19
2022-09-23T11:52:27.008Z,92647.63
2022-09-23T11:55:22.586Z,92651.25
2022-09-23T11:58:22.379Z,92647.16
2022-09-23T12:01:35.223Z,92643.72
2022-09-23T12:04:35.269Z,92647.22
2022-09-23T12:07:14.275Z,92657.47
2022-09-23T12:10:07.288Z,92661.63
2022-09-23T12:13:00.423Z,92671.09
2022-09-23T12:15:47.461Z,92677.66
2022-09-23T12:18:37.134Z,92678.47
2022-09-23T12:21:22.427Z,92680.06
2022-09-23T12:24:35.129Z,92679.25
2022-09-23T12:27:08.587Z,92690.59
2022-09-23T12:29:39.295Z,92691.66
2022-09-23T12:32:11.132Z,92690.41
2022-09-23T12:34:50.418Z,92694.09
2022-09-23T12:37:29.340Z,92696.13
2022-09-23T12:40:20.329Z,92690.34
2022-09-23T12:42:49.884Z,92694.28
2022-09-23T12:45:33.895Z,92703.25
2022-09-23T12:48:05.500Z,92707.97
2022-09-23T12:51:06.673Z,92701.03
2022-09-23T12:53:35.236Z,92714.59
2022-09-23T12:56:20.196Z,92708.22
2022-09-23T12:58:48.737Z,92709.00
2022-09-23T13:01:18.453Z,92712.56
2022-09-23T13:04:14.148Z,92712.16
2022-09-23T13:06:45.532Z,92719.56
2022-09-23T13:09:33.301Z,92714.72
2022-09-23T13:12:08.063Z,92716.44
2022-09-23T13:14:39.259Z,92710.44
2022-09-23T13:17:08.016Z,92727.63
2022-09-23T13:19:38.842Z,92723.31
2022-09-23T13:22:12.408Z,92732.47
2022-09-23T13:24:41.372Z,92727.38
2022-09-23T13:27:35.754Z,92735.03
2022-09-23T13:30:23.651Z,92748.41
2022-09-23T13:33:19.516Z,92745.47
2022-09-23T13:35:54.522Z,92756.41
2022-09-23T13:38:29.399Z,92756.41
2022-09-23T13:41:06.643Z,92762.72
2022-09-23T13:43:43.766Z,92761.44
2022-09-23T13:46:20.854Z,92759.28
2022-09-23T13:48:53.396Z,92759.38
2022-09-23T13:51:36.100Z,92765.38
2022-09-23T13:54:06.475Z,92761.13
2022-09-23T13:56:36.575Z,92762.66
2022-09-23T13:59:30.088Z,92770.56
2022-09-23T14:02:16.535Z,92768.41
2022-09-23T14:04:45.907Z,92779.09
2022-09-23T14:07:17.266Z,92786.03
2022-09-23T14:09:51.455Z,92781.56
2022-09-23T14:12:23.513Z,92784.72
2022-09-23T14:14:54.214Z,92790.06
2022-09-23T14:17:24.696Z,92782.09
2022-09-23T14:19:53.452Z,92788.09
2022-09-23T14:22:30.521Z,92795.38
2022-09-23T14:24:59.778Z,92796.25
2022-09-23T14:27:38.195Z,92800.56
2022-09-23T14:30:07.403Z,92813.38
2022-09-23T14:32:36.251Z,92823.53
2022-09-23T14:35:05.785Z,92832.63
2022-09-23T14:37:58.563Z,92840.66
2022-09-23T14:40:54.652Z,92841.03
2022-09-23T14:43:30.336Z,92839.22
2022-09-23T14:46:00.484Z,92832.66
2022-09-23T14:48:34.567Z,92826.84
2022-09-23T14:51:11.969Z,92839.41
2022-09-23T14:53:44.164Z,92842.94
2022-09-23T14:56:21.877Z,92846.19
2022-09-23T14:58:56.675Z,92846.78
2022-09-23T15:01:35.973Z,92848.69
2022-09-23T15:04:23.150Z,92850.53
2022-09-23T15:07:17.311Z,92849.81
2022-09-23T15:09:47.062Z,92843.53
2022-09-23T15:12:20.208Z,92849.13
2022-09-23T15:14:55.531Z,92843.06
2022-09-23T15:17:25.052Z,92854.75
2022-09-23T15:20:06.872Z,92868.31
2022-09-23T15:22:49.898Z,92888.75
2022-09-23T15:25:20.814Z,92906.59
2022-09-23T15:28:12.403Z,92910.38
2022-09-23T15:30:41.653Z,92902.16
2022-09-23T15:33:17.849Z,92898.72
2022-09-23T15:35:50.648Z,92893.69
2022-09-23T15:38:19.452Z,92896.88
2022-09-23T15:40:48.462Z,92908.31
2022-09-23T15:43:28.347Z,92911.22
2022-09-23T15:46:00.252Z,92911.47
2022-09-23T15:48:38.381Z,92916.22
2022-09-23T15:51:09.299Z,92913.78
2022-09-23T15:53:40.279Z,92911.09
2022-09-23T15:56:09.010Z,92915.53
2022-09-23T15:58:38.530Z,92923.97
2022-09-23T16:01:07.886Z,92913.75
2022-09-23T16:03:36.997Z,92929.59
2022-09-23T16:06:08.250Z,92936.72
2022-09-23T16:08:36.996Z,92936.34
2022-09-23T16:11:07.175Z,92941.09
2022-09-23T16:13:35.818Z,92936.34
2022-09-23T16:16:05.005Z,92935.75
2022-09-23T16:18:34.007Z,92936.03
2022-09-23T16:21:02.770Z,92942.91
2022-09-23T16:23:38.861Z,92948.91
2022-09-23T16:26:19.246Z,92943.75
2022-09-23T16:28:49.568Z,92943.09
2022-09-23T16:31:18.683Z,92948.84
2022-09-23T16:33:48.822Z,92944.53
2022-09-23T16:36:32.630Z,92946.63
2022-09-23T16:39:04.198Z,92948.78
2022-09-23T16:41:33.976Z,92949.56
2022-09-23T16:44:05.880Z,92953.44
2022-09-23T16:46:35.284Z,92955.06
2022-09-23T16:49:04.599Z,92958.91
2022-09-23T16:51:39.325Z,92956.19
2022-09-23T16:54:14.459Z,92961.25
2022-09-23T16:56:45.572Z,92964.31
2022-09-23T16:59:15.684Z,92956.66
2022-09-23T17:02:03.077Z,92954.06
2022-09-23T17:04:31.676Z,92960.06
2022-09-23T17:07:00.502Z,92963.78
2022-09-23T17:09:31.485Z,92965.91
2022-09-23T17:12:13.154Z,92972.38
2022-09-23T17:14:42.061Z,92972.38
2022-09-23T17:17:10.779Z,92976.63
2022-09-23T17:19:42.601Z,92974.16
2022-09-23T17:22:15.231Z,92975.03
2022-09-23T17:24:44.073Z,92973.59
2022-09-23T17:27:12.627Z,92975.88
2022-09-23T17:29:41.148Z,92984.34
2022-09-23T17:32:09.224Z,92989.72
2022-09-23T17:34:37.739Z,92984.41
2022-09-23T17:37:06.502Z,92984.91
2022-09-23T17:39:35.099Z,92986.69
2022-09-23T17:42:04.801Z,92975.88
2022-09-23T17:44:34.568Z,92988.63
2022-09-23T17:47:04.775Z,92979.59
2022-09-23T17:49:36.582Z,92986.16
2022-09-23T17:52:06.974Z,92995.75
2022-09-23T17:54:37.487Z,92994.09
2022-09-23T17:57:06.195Z,92991.91
2022-09-23T17:59:35.057Z,93000.47
2022-09-23T18:02:03.661Z,92998.38
2022-09-23T18:04:32.279Z,92996.69
2022-09-23T18:07:01.007Z,92996.66
2022-09-23T18:09:29.868Z,92991.53
2022-09-23T18:11:59.049Z,92997.63
2022-09-23T18:14:27.684Z,93002.72
2022-09-23T18:16:56.588Z,92995.00
2022-09-23T18:19:25.870Z,92987.81
2022-09-23T18:21:57.395Z,92993.19
2022-09-23T18:24:34.190Z,92990.00
2022-09-23T18:27:03.372Z,92994.59
2022-09-23T18:29:32.793Z,92993.44
2022-09-23T18:32:01.458Z,92997.63
2022-09-23T18:34:30.300Z,92998.75
2022-09-23T18:36:58.943Z,93009.59
2022-09-23T18:39:27.577Z,93018.53
2022-09-23T18:41:56.853Z,93022.88
2022-09-23T18:44:25.591Z,93018.19
2022-09-23T18:46:54.323Z,93010.78
2022-09-23T18:49:41.176Z,93013.72
2022-09-23T18:52:09.688Z,93012.72
2022-09-23T18:54:38.233Z,93005.94
2022-09-23T18:57:06.924Z,92999.63
2022-09-23T18:59:35.525Z,93000.19
2022-09-23T19:02:03.664Z,92987.13
2022-09-23T19:04:32.317Z,92985.59
2022-09-23T19:07:00.948Z,92990.91
2022-09-23T19:09:29.540Z,92996.91
2022-09-23T19:11:58.982Z,92985.31
2022-09-23T19:14:28.030Z,92989.94
2022-09-23T19:16:56.063Z,92990.78
2022-09-23T19:19:24.834Z,92990.88
2022-09-23T19:21:53.920Z,92978.66
2022-09-23T19:24:22.461Z,92985.59
2022-09-23T19:26:51.623Z,92978.06
2022-09-23T19:29:23.005Z,92985.72
2022-09-23T19:31:52.087Z,92977.13
2022-09-23T19:34:27.285Z,92982.13
2022-09-23T19:37:00.573Z,92977.94
2022-09-23T19:39:32.857Z,92966.00
2022-09-23T19:42:01.234Z,92975.88
2022-09-23T19:44:29.983Z,92958.69
2022-09-23T19:46:59.030Z,92963.56
2022-09-23T19:49:27.920Z,92955.03
2022-09-23T19:51:56.647Z,92961.22
2022-09-23T19:54:28.383Z,92968.84
2022-09-23T19:56:57.003Z,92967.41
2022-09-23T19:59:27.171Z,92962.84
2022-09-23T20:01:55.997Z,92955.97
2022-09-23T20:04:24.558Z,92960.31
2022-09-23T20:06:53.155Z,92959.16
2022-09-23T20:09:22.177Z,92981.69
2022-09-23T20:11:51.053Z,92972.72
2022-09-23T20:14:20.611Z,92974.44
2022-09-23T20:16:49.347Z,92969.59
2022-09-23T20:19:18.055Z,92972.09
2022-09-23T20:21:46.647Z,92959.41
2022-09-23T20:24:15.341Z,92960.06
2022-09-23T20:27:02.346Z,92960.84
2022-09-23T20:29:31.004Z,92963.22
2022-09-23T20:32:00.036Z,92958.94
2022-09-23T20:34:34.656Z,92960.03
2022-09-23T20:37:03.223Z,92955.06
2022-09-23T20:39:31.671Z,92944.53
2022-09-23T20:42:03.964Z,92950.16
2022-09-23T20:44:32.512Z,92955.72
2022-09-23T20:47:00.902Z,92944.63
2022-09-23T20:49:30.245Z,92954.13
2022-09-23T20:51:58.751Z,92936.75
2022-09-23T20:54:33.506Z,92936.31
2022-09-23T20:57:02.586Z,92947.38
2022-09-23T20:59:31.137Z,92935.09
2022-09-23T21:02:00.004Z,92938.97
2022-09-23T21:04:29.631Z,92935.91
2022-09-23T21:06:59.483Z,92938.53
2022-09-23T21:09:28.850Z,92933.09
2022-09-23T21:11:57.351Z,92927.44
2022-09-23T21:14:28.796Z,92930.28
2022-09-23T21:16:58.500Z,92928.53
2022-09-23T21:19:29.149Z,92931.56
2022-09-23T21:21:57.045Z,92920.66
2022-09-23T21:25:00.397Z,92929.38
2022-09-23T21:27:14.249Z,92925.41
2022-09-23T21:29:42.791Z,92914.19
2022-09-23T21:32:11.355Z,92924.03
2022-09-23T21:34:40.274Z,92918.81
2022-09-23T21:37:09.605Z,92920.34
2022-09-23T21:39:38.163Z,92919.88
2022-09-23T21:42:07.498Z,92928.22
2022-09-23T21:44:36.305Z,92927.00
2022-09-23T21:47:04.884Z,92911.78
2022-09-23T21:49:33.697Z,92926.56
2022-09-23T21:52:02.396Z,92921.88
2022-09-23T21:54:32.476Z,92924.13
2022-09-23T21:57:02.044Z,92917.59
2022-09-23T21:59:30.437Z,92917.00
2022-09-23T22:02:00.478Z,92909.28
2022-09-23T22:04:29.155Z,92903.88
2022-09-23T22:06:58.701Z,92910.78
2022-09-23T22:09:27.668Z,92905.22
2022-09-23T22:12:13.031Z,92905.72
2022-09-23T22:14:42.283Z,92908.06
2022-09-23T22:17:13.548Z,92909.03
2022-09-23T22:19:46.695Z,92913.78
2022-09-23T22:22:17.762Z,92910.28
2022-09-23T22:24:48.275Z,92905.16
2022-09-23T22:27:18.978Z,92900.25
2022-09-23T22:30:06.015Z,92899.91
2022-09-23T22:32:37.637Z,92901.88
2022-09-23T22:35:06.686Z,92907.53
2022-09-23T22:37:37.166Z,92898.19
2022-09-23T22:40:11.501Z,92900.03
2022-09-23T22:42:40.612Z,92896.38
2022-09-23T22:45:10.686Z,92904.13
2022-09-23T22:47:41.558Z,92901.97
2022-09-23T22:50:11.226Z,92903.34
2022-09-23T22:52:40.312Z,92907.03
2022-09-23T22:55:09.389Z,92902.84
2022-09-23T22:57:38.494Z,92892.75
2022-09-23T23:00:09.077Z,92895.59
2022-09-23T23:02:38.334Z,92895.31
2022-09-23T23:05:07.359Z,92896.41
2022-09-23T23:07:37.292Z,92894.03
2022-09-23T23:10:10.194Z,92900.72
2022-09-23T23:12:40.391Z,92892.34
2022-09-23T23:15:12.966Z,92895.09
2022-09-23T23:17:44.096Z,92899.25
2022-09-23T23:20:12.509Z,92903.13
2022-09-23T23:22:41.050Z,92888.41
2022-09-23T23:25:10.657Z,92898.00
2022-09-23T23:27:39.264Z,92886.16
2022-09-23T23:30:08.944Z,92888.34
2022-09-23T23:32:37.502Z,92893.69
2022-09-23T23:35:06.811Z,92893.22
2022-09-23T23:37:35.367Z,92891.81
2022-09-23T23:40:05.100Z,92890.13
2022-09-23T23:42:33.857Z,92886.97
2022-09-23T23:45:02.709Z,92893.44
2022-09-23T23:47:31.395Z,92895.78
2022-09-23T23:49:59.956Z,92894.66
2022-09-23T23:52:28.446Z,92898.72
2022-09-23T23:54:57.270Z,92886.38
2022-09-23T23:57:25.236Z,92884.88
2022-09-23T23:59:53.768Z,92895.59
